Cmb Ariane — VRIT7 — position and weather

sailwx.info

Track history (hours):
 
Tides and Currents Weather Stations Pressure Air Temp Water Temp Dewpoint Dewpoint Depression Visibility Wind Speed Wind Dir Waves Ship Positions

Cmb Ariane

Last reported at 2017-Oct-20 15:23 UTC. Time now 2017-Oct-23 06:22 UTC.
Position N 29°46' W 093°54'.

Length 180 m; draft 6 m.

Type: Cargo ship. MMSI: 477229600.

Date/timePositionNaut miles runAvg speedWind from/ knotsBaromVisibWave heightAir tempDewpointWater temp
2017-Oct-20 15:23N 29°46' W 093°54'5 8.1
2017-Oct-20 14:47N 29°42' W 093°50'310.8
2017-Oct-20 14:30N 29°39' W 093°50'6 0.4
2017-Oct-20 01:39N 29°36' W 093°44'32 4.9
2017-Oct-19 19:09N 29°16' W 094°13'22 0.8
2017-Oct-18 15:58N 29°10' W 094°37'0 0.0
2017-Oct-18 08:34N 29°10' W 094°37'0 0.1
2017-Oct-18 08:28N 29°10' W 094°37'22 0.4
2017-Oct-16 05:14N 29°28' W 094°51'314.0
2017-Oct-16 05:00N 29°31' W 094°53'612.9
2017-Oct-16 04:30N 29°37' W 094°57'612.4
2017-Oct-16 04:01N 29°42' W 095°01'510.0
2017-Oct-16 03:30N 29°46' W 095°05'2 3.8
2017-Oct-16 03:00N 29°45' W 095°07'0 0.1
2017-Oct-16 02:28N 29°45' W 095°07'0 0.0
2017-Oct-16 00:40N 29°45' W 095°07'0 0.0
2017-Oct-16 00:19N 29°45' W 095°07'0 0.0
2017-Oct-15 23:58N 29°45' W 095°07'0 0.0
2017-Oct-15 23:22N 29°45' W 095°07'0 0.0
2017-Oct-15 22:01N 29°45' W 095°07'0 0.0
2017-Oct-15 21:40N 29°45' W 095°07'0 0.0
2017-Oct-15 21:16N 29°45' W 095°07'0 0.0
2017-Oct-15 20:55N 29°45' W 095°07'0 0.0
2017-Oct-15 20:28N 29°45' W 095°07'0 0.0
2017-Oct-15 19:52N 29°45' W 095°07'0 0.0
2017-Oct-15 19:28N 29°45' W 095°07'0 0.0
2017-Oct-15 18:31N 29°45' W 095°07'0 0.0
2017-Oct-15 17:19N 29°45' W 095°07'0 0.0
2017-Oct-15 16:55N 29°45' W 095°07'0 0.0
2017-Oct-15 16:25N 29°45' W 095°07'0 0.0
2017-Oct-15 15:58N 29°45' W 095°07'0 0.0
2017-Oct-15 15:28N 29°45' W 095°07'0 0.0
2017-Oct-15 14:49N 29°45' W 095°07'0 0.0
2017-Oct-15 13:58N 29°45' W 095°07'0 0.0
2017-Oct-15 13:28N 29°45' W 095°07'0 0.0
2017-Oct-15 12:58N 29°45' W 095°07'0 0.0
2017-Oct-15 12:31N 29°45' W 095°07'0 0.0
2017-Oct-15 11:46N 29°45' W 095°07'0 0.0
2017-Oct-15 11:28N 29°45' W 095°07'0 0.0
2017-Oct-15 10:58N 29°45' W 095°07'0 0.0
2017-Oct-15 10:25N 29°45' W 095°07'0 0.0
2017-Oct-15 09:58N 29°45' W 095°07'0 0.0
2017-Oct-15 09:28N 29°45' W 095°07'0 0.0
2017-Oct-15 08:58N 29°45' W 095°07'0 0.0
2017-Oct-15 08:27N 29°45' W 095°07'0 0.0
2017-Oct-15 07:58N 29°45' W 095°07'0 0.0
2017-Oct-15 07:30N 29°45' W 095°07'0 0.0
2017-Oct-15 06:49N 29°45' W 095°07'0 0.0
2017-Oct-15 06:30N 29°45' W 095°07'0 0.0
2017-Oct-15 05:58N 29°45' W 095°07'0 0.0
2017-Oct-15 05:31N 29°45' W 095°07'0 0.0
2017-Oct-15 04:57N 29°45' W 095°07'0 0.0
2017-Oct-15 04:27N 29°45' W 095°07'0 0.0
2017-Oct-15 03:58N 29°45' W 095°07'0 0.0
2017-Oct-15 03:16N 29°45' W 095°07'0 0.0
2017-Oct-15 02:55N 29°45' W 095°07'0 0.0
2017-Oct-15 02:25N 29°45' W 095°07'0 0.0
2017-Oct-15 02:00N 29°45' W 095°07'0 0.0
2017-Oct-15 01:31N 29°45' W 095°07'0 0.0
2017-Oct-15 00:54N 29°45' W 095°07'0 0.0
2017-Oct-15 00:30N 29°45' W 095°07'0 0.0
2017-Oct-15 00:01N 29°45' W 095°07'0 0.0
2017-Oct-14 23:30N 29°45' W 095°07'0 0.0
2017-Oct-14 22:57N 29°45' W 095°07'0 0.0
2017-Oct-14 22:30N 29°45' W 095°07'0 0.0
2017-Oct-14 21:51N 29°45' W 095°07'0 0.0
2017-Oct-14 21:30N 29°45' W 095°07'0 0.0
2017-Oct-14 21:00N 29°45' W 095°07'0 0.0
2017-Oct-14 20:27N 29°45' W 095°07'0 0.0
2017-Oct-14 19:57N 29°45' W 095°07'0 0.0
2017-Oct-14 19:27N 29°45' W 095°07'0 0.0
2017-Oct-14 18:54N 29°45' W 095°07'0 0.0
2017-Oct-14 18:30N 29°45' W 095°07'0 0.0
2017-Oct-14 16:36N 29°45' W 095°07'0 0.0
2017-Oct-14 16:31N 29°45' W 095°07'0 0.0
2017-Oct-14 15:54N 29°45' W 095°07'0 0.0
2017-Oct-14 14:42N 29°45' W 095°07'0 0.0
2017-Oct-14 14:30N 29°45' W 095°07'0 0.0
2017-Oct-14 13:54N 29°45' W 095°07'0 0.0
2017-Oct-14 12:48N 29°45' W 095°07'0 0.0
2017-Oct-14 11:42N 29°45' W 095°07'0 0.0
2017-Oct-14 11:31N 29°45' W 095°07'0 0.0
2017-Oct-14 09:18N 29°45' W 095°07'0 0.0
2017-Oct-14 09:00N 29°45' W 095°07'0 0.0
2017-Oct-14 08:30N 29°45' W 095°07'0 0.0
2017-Oct-14 07:57N 29°45' W 095°07'0 0.0
2017-Oct-14 07:24N 29°45' W 095°07'0 0.0
2017-Oct-14 07:00N 29°45' W 095°07'0 0.0
2017-Oct-14 06:24N 29°45' W 095°07'0 0.0
2017-Oct-14 05:42N 29°45' W 095°07'0 0.0
2017-Oct-14 05:18N 29°45' W 095°07'0 0.0
2017-Oct-14 05:00N 29°45' W 095°07'0 0.0
2017-Oct-13 22:27N 29°45' W 095°07'0 0.0
2017-Oct-13 21:57N 29°45' W 095°07'0 0.0
2017-Oct-13 21:12N 29°45' W 095°07'0 0.0
2017-Oct-13 21:00N 29°45' W 095°07'0 0.0
2017-Oct-13 20:30N 29°45' W 095°07'0 0.0
2017-Oct-13 07:27N 29°45' W 095°07'0 0.0
2017-Oct-13 06:57N 29°45' W 095°07'0 0.0
2017-Oct-13 06:15N 29°45' W 095°07'0 0.0
2017-Oct-13 06:00N 29°45' W 095°07'0 0.0
2017-Oct-13 05:30N 29°45' W 095°07'0 0.0
2017-Oct-13 03:33N 29°45' W 095°07'0 0.0
2017-Oct-13 03:12N 29°45' W 095°07'0 0.0
2017-Oct-13 02:51N 29°45' W 095°07'0 0.0
2017-Oct-13 00:57N 29°45' W 095°07'0 0.0
2017-Oct-13 00:27N 29°45' W 095°07'0 0.0
2017-Oct-12 23:51N 29°45' W 095°07'0 0.0
2017-Oct-12 23:15N 29°45' W 095°07'0 0.0
2017-Oct-12 20:27N 29°45' W 095°07'0 0.0
2017-Oct-12 19:57N 29°45' W 095°07'0 0.0
2017-Oct-12 16:06N 29°45' W 095°07'0 0.1
2017-Oct-12 16:00N 29°45' W 095°07'0 0.0
2017-Oct-12 15:27N 29°45' W 095°07'0 0.0
2017-Oct-12 15:00N 29°45' W 095°07'0 0.0
2017-Oct-12 10:21N 29°45' W 095°07'0 0.0
2017-Oct-12 06:42N 29°45' W 095°07'0 0.0
2017-Oct-12 06:30N 29°45' W 095°07'0 0.0
2017-Oct-12 05:57N 29°45' W 095°07'0 0.0
2017-Oct-12 05:24N 29°45' W 095°07'0 0.0
2017-Oct-12 05:00N 29°45' W 095°07'0 0.0
2017-Oct-12 02:33N 29°45' W 095°07'0 0.0
2017-Oct-12 02:15N 29°45' W 095°07'0 0.0
2017-Oct-12 02:00N 29°45' W 095°07'0 0.0
2017-Oct-12 00:45N 29°45' W 095°07'0 0.0
2017-Oct-12 00:30N 29°45' W 095°07'0 0.0
2017-Oct-11 23:57N 29°45' W 095°07'0 0.0
2017-Oct-11 22:21N 29°45' W 095°07'0 0.0
2017-Oct-10 23:57N 29°45' W 095°07'0 0.0
2017-Oct-10 21:33N 29°45' W 095°07'0 0.0
2017-Oct-10 21:27N 29°45' W 095°07'0 0.0
2017-Oct-10 20:51N 29°45' W 095°07'0 0.0
2017-Oct-10 20:30N 29°45' W 095°07'0 0.0
2017-Oct-10 15:36N 29°45' W 095°07'0 0.0
2017-Oct-10 15:24N 29°45' W 095°07'  
Track history (hours):
 
Tides and Currents Weather Stations Pressure Air Temp Water Temp Dewpoint Dewpoint Depression Visibility Wind Speed Wind Dir Waves Ship Positions

Cmb Ariane

Last reported at 2017-Oct-20 15:23 UTC. Time now 2017-Oct-23 06:22 UTC.
Position N 29°46' W 093°54'.

Length 180 m; draft 6 m.

Type: Cargo ship. MMSI: 477229600.

Date/timePositionNaut miles runAvg speedWind from/ knotsBaromVisibWave heightAir tempDewpointWater temp
2017-Oct-20 15:23N 29°46' W 093°54'5 8.1
2017-Oct-20 14:47N 29°42' W 093°50'310.8
2017-Oct-20 14:30N 29°39' W 093°50'6 0.4
2017-Oct-20 01:39N 29°36' W 093°44'32 4.9
2017-Oct-19 19:09N 29°16' W 094°13'22 0.8
2017-Oct-18 15:58N 29°10' W 094°37'0 0.0
2017-Oct-18 08:34N 29°10' W 094°37'0 0.1
2017-Oct-18 08:28N 29°10' W 094°37'22 0.4
2017-Oct-16 05:14N 29°28' W 094°51'314.0
2017-Oct-16 05:00N 29°31' W 094°53'612.9
2017-Oct-16 04:30N 29°37' W 094°57'612.4
2017-Oct-16 04:01N 29°42' W 095°01'510.0
2017-Oct-16 03:30N 29°46' W 095°05'2 3.8
2017-Oct-16 03:00N 29°45' W 095°07'0 0.1
2017-Oct-16 02:28N 29°45' W 095°07'0 0.0
2017-Oct-16 00:40N 29°45' W 095°07'0 0.0
2017-Oct-16 00:19N 29°45' W 095°07'0 0.0
2017-Oct-15 23:58N 29°45' W 095°07'0 0.0
2017-Oct-15 23:22N 29°45' W 095°07'0 0.0
2017-Oct-15 22:01N 29°45' W 095°07'0 0.0
2017-Oct-15 21:40N 29°45' W 095°07'0 0.0
2017-Oct-15 21:16N 29°45' W 095°07'0 0.0
2017-Oct-15 20:55N 29°45' W 095°07'0 0.0
2017-Oct-15 20:28N 29°45' W 095°07'0 0.0
2017-Oct-15 19:52N 29°45' W 095°07'0 0.0
2017-Oct-15 19:28N 29°45' W 095°07'0 0.0
2017-Oct-15 18:31N 29°45' W 095°07'0 0.0
2017-Oct-15 17:19N 29°45' W 095°07'0 0.0
2017-Oct-15 16:55N 29°45' W 095°07'0 0.0
2017-Oct-15 16:25N 29°45' W 095°07'0 0.0
2017-Oct-15 15:58N 29°45' W 095°07'0 0.0
2017-Oct-15 15:28N 29°45' W 095°07'0 0.0
2017-Oct-15 14:49N 29°45' W 095°07'0 0.0
2017-Oct-15 13:58N 29°45' W 095°07'0 0.0
2017-Oct-15 13:28N 29°45' W 095°07'0 0.0
2017-Oct-15 12:58N 29°45' W 095°07'0 0.0
2017-Oct-15 12:31N 29°45' W 095°07'0 0.0
2017-Oct-15 11:46N 29°45' W 095°07'0 0.0
2017-Oct-15 11:28N 29°45' W 095°07'0 0.0
2017-Oct-15 10:58N 29°45' W 095°07'0 0.0
2017-Oct-15 10:25N 29°45' W 095°07'0 0.0
2017-Oct-15 09:58N 29°45' W 095°07'0 0.0
2017-Oct-15 09:28N 29°45' W 095°07'0 0.0
2017-Oct-15 08:58N 29°45' W 095°07'0 0.0
2017-Oct-15 08:27N 29°45' W 095°07'0 0.0
2017-Oct-15 07:58N 29°45' W 095°07'0 0.0
2017-Oct-15 07:30N 29°45' W 095°07'0 0.0
2017-Oct-15 06:49N 29°45' W 095°07'0 0.0
2017-Oct-15 06:30N 29°45' W 095°07'0 0.0
2017-Oct-15 05:58N 29°45' W 095°07'0 0.0
2017-Oct-15 05:31N 29°45' W 095°07'0 0.0
2017-Oct-15 04:57N 29°45' W 095°07'0 0.0
2017-Oct-15 04:27N 29°45' W 095°07'0 0.0
2017-Oct-15 03:58N 29°45' W 095°07'0 0.0
2017-Oct-15 03:16N 29°45' W 095°07'0 0.0
2017-Oct-15 02:55N 29°45' W 095°07'0 0.0
2017-Oct-15 02:25N 29°45' W 095°07'0 0.0
2017-Oct-15 02:00N 29°45' W 095°07'0 0.0
2017-Oct-15 01:31N 29°45' W 095°07'0 0.0
2017-Oct-15 00:54N 29°45' W 095°07'0 0.0
2017-Oct-15 00:30N 29°45' W 095°07'0 0.0
2017-Oct-15 00:01N 29°45' W 095°07'0 0.0
2017-Oct-14 23:30N 29°45' W 095°07'0 0.0
2017-Oct-14 22:57N 29°45' W 095°07'0 0.0
2017-Oct-14 22:30N 29°45' W 095°07'0 0.0
2017-Oct-14 21:51N 29°45' W 095°07'0 0.0
2017-Oct-14 21:30N 29°45' W 095°07'0 0.0
2017-Oct-14 21:00N 29°45' W 095°07'0 0.0
2017-Oct-14 20:27N 29°45' W 095°07'0 0.0
2017-Oct-14 19:57N 29°45' W 095°07'0 0.0
2017-Oct-14 19:27N 29°45' W 095°07'0 0.0
2017-Oct-14 18:54N 29°45' W 095°07'0 0.0
2017-Oct-14 18:30N 29°45' W 095°07'0 0.0
2017-Oct-14 16:36N 29°45' W 095°07'0 0.0
2017-Oct-14 16:31N 29°45' W 095°07'0 0.0
2017-Oct-14 15:54N 29°45' W 095°07'0 0.0
2017-Oct-14 14:42N 29°45' W 095°07'0 0.0
2017-Oct-14 14:30N 29°45' W 095°07'0 0.0
2017-Oct-14 13:54N 29°45' W 095°07'0 0.0
2017-Oct-14 12:48N 29°45' W 095°07'0 0.0
2017-Oct-14 11:42N 29°45' W 095°07'0 0.0
2017-Oct-14 11:31N 29°45' W 095°07'0 0.0
2017-Oct-14 09:18N 29°45' W 095°07'0 0.0
2017-Oct-14 09:00N 29°45' W 095°07'0 0.0
2017-Oct-14 08:30N 29°45' W 095°07'0 0.0
2017-Oct-14 07:57N 29°45' W 095°07'0 0.0
2017-Oct-14 07:24N 29°45' W 095°07'0 0.0
2017-Oct-14 07:00N 29°45' W 095°07'0 0.0
2017-Oct-14 06:24N 29°45' W 095°07'0 0.0
2017-Oct-14 05:42N 29°45' W 095°07'0 0.0
2017-Oct-14 05:18N 29°45' W 095°07'0 0.0
2017-Oct-14 05:00N 29°45' W 095°07'0 0.0
2017-Oct-13 22:27N 29°45' W 095°07'0 0.0
2017-Oct-13 21:57N 29°45' W 095°07'0 0.0
2017-Oct-13 21:12N 29°45' W 095°07'0 0.0
2017-Oct-13 21:00N 29°45' W 095°07'0 0.0
2017-Oct-13 20:30N 29°45' W 095°07'0 0.0
2017-Oct-13 07:27N 29°45' W 095°07'0 0.0
2017-Oct-13 06:57N 29°45' W 095°07'0 0.0
2017-Oct-13 06:15N 29°45' W 095°07'0 0.0
2017-Oct-13 06:00N 29°45' W 095°07'0 0.0
2017-Oct-13 05:30N 29°45' W 095°07'0 0.0
2017-Oct-13 03:33N 29°45' W 095°07'0 0.0
2017-Oct-13 03:12N 29°45' W 095°07'0 0.0
2017-Oct-13 02:51N 29°45' W 095°07'0 0.0
2017-Oct-13 00:57N 29°45' W 095°07'0 0.0
2017-Oct-13 00:27N 29°45' W 095°07'0 0.0
2017-Oct-12 23:51N 29°45' W 095°07'0 0.0
2017-Oct-12 23:15N 29°45' W 095°07'0 0.0
2017-Oct-12 20:27N 29°45' W 095°07'0 0.0
2017-Oct-12 19:57N 29°45' W 095°07'0 0.0
2017-Oct-12 16:06N 29°45' W 095°07'0 0.1
2017-Oct-12 16:00N 29°45' W 095°07'0 0.0
2017-Oct-12 15:27N 29°45' W 095°07'0 0.0
2017-Oct-12 15:00N 29°45' W 095°07'0 0.0
2017-Oct-12 10:21N 29°45' W 095°07'0 0.0
2017-Oct-12 06:42N 29°45' W 095°07'0 0.0
2017-Oct-12 06:30N 29°45' W 095°07'0 0.0
2017-Oct-12 05:57N 29°45' W 095°07'0 0.0
2017-Oct-12 05:24N 29°45' W 095°07'0 0.0
2017-Oct-12 05:00N 29°45' W 095°07'0 0.0
2017-Oct-12 02:33N 29°45' W 095°07'0 0.0
2017-Oct-12 02:15N 29°45' W 095°07'0 0.0
2017-Oct-12 02:00N 29°45' W 095°07'0 0.0
2017-Oct-12 00:45N 29°45' W 095°07'0 0.0
2017-Oct-12 00:30N 29°45' W 095°07'0 0.0
2017-Oct-11 23:57N 29°45' W 095°07'0 0.0
2017-Oct-11 22:21N 29°45' W 095°07'0 0.0
2017-Oct-10 23:57N 29°45' W 095°07'0 0.0
2017-Oct-10 21:33N 29°45' W 095°07'0 0.0
2017-Oct-10 21:27N 29°45' W 095°07'0 0.0
2017-Oct-10 20:51N 29°45' W 095°07'0 0.0
2017-Oct-10 20:30N 29°45' W 095°07'0 0.0
2017-Oct-10 15:36N 29°45' W 095°07'0 0.0
2017-Oct-10 15:24N 29°45' W 095°07'  

Dump ship's entire track history